sensor_id;sensor_type;location;lat;lon;timestamp;temperature;humidity
22249;DHT22;67538;52.180;5.646;2024-02-21T00:00:20;9.70;99.90
22249;DHT22;67538;52.180;5.646;2024-02-21T00:02:47;9.70;99.90
22249;DHT22;67538;52.180;5.646;2024-02-21T00:05:14;9.70;99.90
22249;DHT22;67538;52.180;5.646;2024-02-21T00:07:42;9.70;99.90
22249;DHT22;67538;52.180;5.646;2024-02-21T00:10:09;9.70;99.90
22249;DHT22;67538;52.180;5.646;2024-02-21T00:12:36;9.70;99.90
22249;DHT22;67538;52.180;5.646;2024-02-21T00:15:04;9.60;99.90
22249;DHT22;67538;52.180;5.646;2024-02-21T00:17:32;9.60;99.90
22249;DHT22;67538;52.180;5.646;2024-02-21T00:19:59;9.60;99.90
22249;DHT22;67538;52.180;5.646;2024-02-21T00:22:26;9.70;99.90
22249;DHT22;67538;52.180;5.646;2024-02-21T00:24:56;9.60;99.90
22249;DHT22;67538;52.180;5.646;2024-02-21T00:27:23;9.60;99.90
22249;DHT22;67538;52.180;5.646;2024-02-21T00:29:51;9.60;99.90
22249;DHT22;67538;52.180;5.646;2024-02-21T00:32:18;9.60;99.90
22249;DHT22;67538;52.180;5.646;2024-02-21T00:34:45;9.60;99.90
22249;DHT22;67538;52.180;5.646;2024-02-21T00:37:12;9.60;99.90
22249;DHT22;67538;52.180;5.646;2024-02-21T00:39:39;9.60;99.90
22249;DHT22;67538;52.180;5.646;2024-02-21T00:42:09;9.60;99.90
22249;DHT22;67538;52.180;5.646;2024-02-21T00:44:36;9.60;99.90
22249;DHT22;67538;52.180;5.646;2024-02-21T00:47:03;9.60;99.90
22249;DHT22;67538;52.180;5.646;2024-02-21T00:49:30;9.60;99.90
22249;DHT22;67538;52.180;5.646;2024-02-21T00:51:57;9.60;99.90
22249;DHT22;67538;52.180;5.646;2024-02-21T00:54:24;9.60;99.90
22249;DHT22;67538;52.180;5.646;2024-02-21T00:56:51;9.50;99.90
22249;DHT22;67538;52.180;5.646;2024-02-21T00:59:20;9.60;99.90
22249;DHT22;67538;52.180;5.646;2024-02-21T01:01:47;9.60;99.90
22249;DHT22;67538;52.180;5.646;2024-02-21T01:04:14;9.60;99.90
22249;DHT22;67538;52.180;5.646;2024-02-21T01:06:41;9.60;99.90
22249;DHT22;67538;52.180;5.646;2024-02-21T01:09:09;9.50;99.90
22249;DHT22;67538;52.180;5.646;2024-02-21T01:11:36;9.50;99.90
22249;DHT22;67538;52.180;5.646;2024-02-21T01:14:03;9.50;99.90
22249;DHT22;67538;52.180;5.646;2024-02-21T01:16:32;9.50;99.90
22249;DHT22;67538;52.180;5.646;2024-02-21T01:18:59;9.50;99.90
22249;DHT22;67538;52.180;5.646;2024-02-21T01:21:26;9.50;99.90
22249;DHT22;67538;52.180;5.646;2024-02-21T01:23:53;9.50;99.90
22249;DHT22;67538;52.180;5.646;2024-02-21T01:26:20;9.50;99.90
22249;DHT22;67538;52.180;5.646;2024-02-21T01:28:47;9.50;99.90
22249;DHT22;67538;52.180;5.646;2024-02-21T01:31:14;9.50;99.90
22249;DHT22;67538;52.180;5.646;2024-02-21T01:33:43;9.50;99.90
22249;DHT22;67538;52.180;5.646;2024-02-21T01:36:10;9.50;99.90
22249;DHT22;67538;52.180;5.646;2024-02-21T01:38:37;9.50;99.90
22249;DHT22;67538;52.180;5.646;2024-02-21T01:41:04;9.50;99.90
22249;DHT22;67538;52.180;5.646;2024-02-21T01:43:31;9.50;99.90
22249;DHT22;67538;52.180;5.646;2024-02-21T01:45:59;9.50;99.90
22249;DHT22;67538;52.180;5.646;2024-02-21T01:48:26;9.50;99.90
22249;DHT22;67538;52.180;5.646;2024-02-21T01:50:55;9.50;99.90
22249;DHT22;67538;52.180;5.646;2024-02-21T01:53:24;9.50;99.90
22249;DHT22;67538;52.180;5.646;2024-02-21T01:55:51;9.50;99.90
22249;DHT22;67538;52.180;5.646;2024-02-21T01:58:18;9.50;99.90
22249;DHT22;67538;52.180;5.646;2024-02-21T02:00:47;9.50;99.90
22249;DHT22;67538;52.180;5.646;2024-02-21T02:03:15;9.50;99.90
22249;DHT22;67538;52.180;5.646;2024-02-21T02:05:43;9.40;99.90
22249;DHT22;67538;52.180;5.646;2024-02-21T02:08:13;9.40;99.90
22249;DHT22;67538;52.180;5.646;2024-02-21T02:10:41;9.50;99.90
22249;DHT22;67538;52.180;5.646;2024-02-21T02:13:09;9.40;99.90
22249;DHT22;67538;52.180;5.646;2024-02-21T02:15:39;9.50;99.90
22249;DHT22;67538;52.180;5.646;2024-02-21T02:18:07;9.50;99.90
22249;DHT22;67538;52.180;5.646;2024-02-21T02:20:34;9.50;99.90
22249;DHT22;67538;52.180;5.646;2024-02-21T02:23:07;9.50;99.90
22249;DHT22;67538;52.180;5.646;2024-02-21T02:25:35;9.50;99.90
22249;DHT22;67538;52.180;5.646;2024-02-21T02:28:03;9.40;99.90
22249;DHT22;67538;52.180;5.646;2024-02-21T02:30:32;9.50;99.90
22249;DHT22;67538;52.180;5.646;2024-02-21T02:33:00;9.40;99.90
22249;DHT22;67538;52.180;5.646;2024-02-21T02:35:27;9.40;99.90
22249;DHT22;67538;52.180;5.646;2024-02-21T02:37:54;9.40;99.90
22249;DHT22;67538;52.180;5.646;2024-02-21T02:40:21;9.40;99.90
22249;DHT22;67538;52.180;5.646;2024-02-21T02:42:50;9.40;99.90
22249;DHT22;67538;52.180;5.646;2024-02-21T02:45:21;9.40;99.90
22249;DHT22;67538;52.180;5.646;2024-02-21T02:47:48;9.40;99.90
22249;DHT22;67538;52.180;5.646;2024-02-21T02:50:15;9.40;99.90
22249;DHT22;67538;52.180;5.646;2024-02-21T02:52:42;9.40;99.90
22249;DHT22;67538;52.180;5.646;2024-02-21T02:55:10;9.40;99.90
22249;DHT22;67538;52.180;5.646;2024-02-21T02:57:37;9.40;99.90
22249;DHT22;67538;52.180;5.646;2024-02-21T03:00:06;9.40;99.90
22249;DHT22;67538;52.180;5.646;2024-02-21T03:02:34;9.40;99.90
22249;DHT22;67538;52.180;5.646;2024-02-21T03:05:12;9.40;99.90
22249;DHT22;67538;52.180;5.646;2024-02-21T03:07:39;9.40;99.90
22249;DHT22;67538;52.180;5.646;2024-02-21T03:10:07;9.40;99.90
22249;DHT22;67538;52.180;5.646;2024-02-21T03:12:34;9.40;99.90
22249;DHT22;67538;52.180;5.646;2024-02-21T03:15:01;9.40;99.90
22249;DHT22;67538;52.180;5.646;2024-02-21T03:17:29;9.40;99.90
22249;DHT22;67538;52.180;5.646;2024-02-21T03:19:57;9.40;99.90
22249;DHT22;67538;52.180;5.646;2024-02-21T03:22:25;9.40;99.90
22249;DHT22;67538;52.180;5.646;2024-02-21T03:24:53;9.40;99.90
22249;DHT22;67538;52.180;5.646;2024-02-21T03:27:20;9.40;99.90
22249;DHT22;67538;52.180;5.646;2024-02-21T03:29:47;9.40;99.90
22249;DHT22;67538;52.180;5.646;2024-02-21T03:32:15;9.30;99.90
22249;DHT22;67538;52.180;5.646;2024-02-21T03:34:43;9.40;99.90
22249;DHT22;67538;52.180;5.646;2024-02-21T03:37:10;9.30;99.90
22249;DHT22;67538;52.180;5.646;2024-02-21T03:39:39;9.30;99.90
22249;DHT22;67538;52.180;5.646;2024-02-21T03:42:06;9.30;99.90
22249;DHT22;67538;52.180;5.646;2024-02-21T03:44:34;9.30;99.90
22249;DHT22;67538;52.180;5.646;2024-02-21T03:47:02;9.30;99.90
22249;DHT22;67538;52.180;5.646;2024-02-21T03:49:29;9.30;99.90
22249;DHT22;67538;52.180;5.646;2024-02-21T03:51:57;9.30;99.90
22249;DHT22;67538;52.180;5.646;2024-02-21T03:54:24;9.30;99.90
22249;DHT22;67538;52.180;5.646;2024-02-21T03:56:51;9.30;99.90
22249;DHT22;67538;52.180;5.646;2024-02-21T03:59:18;9.30;99.90
22249;DHT22;67538;52.180;5.646;2024-02-21T04:01:45;9.30;99.90
22249;DHT22;67538;52.180;5.646;2024-02-21T04:04:12;9.30;99.90
22249;DHT22;67538;52.180;5.646;2024-02-21T04:06:46;9.30;99.90
22249;DHT22;67538;52.180;5.646;2024-02-21T04:09:15;9.20;99.90
22249;DHT22;67538;52.180;5.646;2024-02-21T04:11:42;9.20;99.90
22249;DHT22;67538;52.180;5.646;2024-02-21T04:14:09;9.20;99.90
22249;DHT22;67538;52.180;5.646;2024-02-21T04:16:37;9.20;99.90
22249;DHT22;67538;52.180;5.646;2024-02-21T04:19:04;9.20;99.90
22249;DHT22;67538;52.180;5.646;2024-02-21T04:21:32;9.20;99.90
22249;DHT22;67538;52.180;5.646;2024-02-21T04:23:59;9.20;99.90
22249;DHT22;67538;52.180;5.646;2024-02-21T04:26:28;9.20;99.90
22249;DHT22;67538;52.180;5.646;2024-02-21T04:28:55;9.20;99.90
22249;DHT22;67538;52.180;5.646;2024-02-21T04:31:23;9.20;99.90
22249;DHT22;67538;52.180;5.646;2024-02-21T04:33:51;9.20;99.90
22249;DHT22;67538;52.180;5.646;2024-02-21T04:36:18;9.20;99.90
22249;DHT22;67538;52.180;5.646;2024-02-21T04:38:45;9.20;99.90
22249;DHT22;67538;52.180;5.646;2024-02-21T04:41:12;9.20;99.90
22249;DHT22;67538;52.180;5.646;2024-02-21T04:43:41;9.20;99.90
22249;DHT22;67538;52.180;5.646;2024-02-21T04:46:08;9.20;99.90
22249;DHT22;67538;52.180;5.646;2024-02-21T04:48:35;9.20;99.90
22249;DHT22;67538;52.180;5.646;2024-02-21T04:51:03;9.20;99.90
22249;DHT22;67538;52.180;5.646;2024-02-21T04:53:30;9.20;99.90
22249;DHT22;67538;52.180;5.646;2024-02-21T04:55:57;9.20;99.90
22249;DHT22;67538;52.180;5.646;2024-02-21T04:58:24;9.20;99.90
22249;DHT22;67538;52.180;5.646;2024-02-21T05:00:52;9.20;99.90
22249;DHT22;67538;52.180;5.646;2024-02-21T05:03:20;9.20;99.90
22249;DHT22;67538;52.180;5.646;2024-02-21T05:05:48;9.20;99.90
22249;DHT22;67538;52.180;5.646;2024-02-21T05:08:15;9.20;99.90
22249;DHT22;67538;52.180;5.646;2024-02-21T05:10:42;9.20;99.90
22249;DHT22;67538;52.180;5.646;2024-02-21T05:13:09;9.20;99.90
22249;DHT22;67538;52.180;5.646;2024-02-21T05:15:36;9.20;99.90
22249;DHT22;67538;52.180;5.646;2024-02-21T05:18:05;9.20;99.90
22249;DHT22;67538;52.180;5.646;2024-02-21T05:20:32;9.20;99.90
22249;DHT22;67538;52.180;5.646;2024-02-21T05:22:59;9.20;99.90
22249;DHT22;67538;52.180;5.646;2024-02-21T05:25:26;9.20;99.90
22249;DHT22;67538;52.180;5.646;2024-02-21T05:27:54;9.20;99.90
22249;DHT22;67538;52.180;5.646;2024-02-21T05:30:21;9.10;99.90
22249;DHT22;67538;52.180;5.646;2024-02-21T05:32:48;9.10;99.90
22249;DHT22;67538;52.180;5.646;2024-02-21T05:35:17;9.10;99.90
22249;DHT22;67538;52.180;5.646;2024-02-21T05:37:44;9.10;99.90
22249;DHT22;67538;52.180;5.646;2024-02-21T05:40:12;9.10;99.90
22249;DHT22;67538;52.180;5.646;2024-02-21T05:42:40;9.10;99.90
22249;DHT22;67538;52.180;5.646;2024-02-21T05:45:07;9.10;99.90
22249;DHT22;67538;52.180;5.646;2024-02-21T05:47:34;9.10;99.90
22249;DHT22;67538;52.180;5.646;2024-02-21T05:50:02;9.10;99.90
22249;DHT22;67538;52.180;5.646;2024-02-21T05:52:30;9.10;99.90
22249;DHT22;67538;52.180;5.646;2024-02-21T05:54:57;9.10;99.90
22249;DHT22;67538;52.180;5.646;2024-02-21T05:57:24;9.10;99.90
22249;DHT22;67538;52.180;5.646;2024-02-21T05:59:51;9.10;99.90
22249;DHT22;67538;52.180;5.646;2024-02-21T06:02:19;9.10;99.90
22249;DHT22;67538;52.180;5.646;2024-02-21T06:04:47;9.00;99.90
22249;DHT22;67538;52.180;5.646;2024-02-21T06:07:14;9.00;99.90
22249;DHT22;67538;52.180;5.646;2024-02-21T06:09:42;9.00;99.90
22249;DHT22;67538;52.180;5.646;2024-02-21T06:12:10;9.00;99.90
22249;DHT22;67538;52.180;5.646;2024-02-21T06:14:37;9.00;99.90
22249;DHT22;67538;52.180;5.646;2024-02-21T06:17:04;9.00;99.90
22249;DHT22;67538;52.180;5.646;2024-02-21T06:19:31;8.90;99.90
22249;DHT22;67538;52.180;5.646;2024-02-21T06:21:58;8.90;99.90
22249;DHT22;67538;52.180;5.646;2024-02-21T06:24:25;8.90;99.90
22249;DHT22;67538;52.180;5.646;2024-02-21T06:26:52;8.90;99.90
22249;DHT22;67538;52.180;5.646;2024-02-21T06:29:19;8.90;99.90
22249;DHT22;67538;52.180;5.646;2024-02-21T06:31:46;8.80;99.90
22249;DHT22;67538;52.180;5.646;2024-02-21T06:34:13;8.80;99.90
22249;DHT22;67538;52.180;5.646;2024-02-21T06:36:40;8.80;99.90
22249;DHT22;67538;52.180;5.646;2024-02-21T06:39:07;8.80;99.90
22249;DHT22;67538;52.180;5.646;2024-02-21T06:41:36;8.80;99.90
22249;DHT22;67538;52.180;5.646;2024-02-21T06:44:05;8.80;99.90
22249;DHT22;67538;52.180;5.646;2024-02-21T06:46:32;8.80;99.90
22249;DHT22;67538;52.180;5.646;2024-02-21T06:49:00;8.80;99.90
22249;DHT22;67538;52.180;5.646;2024-02-21T06:51:28;8.80;99.90
22249;DHT22;67538;52.180;5.646;2024-02-21T06:53:55;8.80;99.90
22249;DHT22;67538;52.180;5.646;2024-02-21T06:56:24;8.80;99.90
22249;DHT22;67538;52.180;5.646;2024-02-21T06:58:54;8.80;99.90
22249;DHT22;67538;52.180;5.646;2024-02-21T07:01:22;8.80;99.90
22249;DHT22;67538;52.180;5.646;2024-02-21T07:03:49;8.80;99.90
22249;DHT22;67538;52.180;5.646;2024-02-21T07:06:17;8.80;99.90
22249;DHT22;67538;52.180;5.646;2024-02-21T07:08:44;8.80;99.90
22249;DHT22;67538;52.180;5.646;2024-02-21T07:11:11;8.80;99.90
22249;DHT22;67538;52.180;5.646;2024-02-21T07:13:38;8.80;99.90
22249;DHT22;67538;52.180;5.646;2024-02-21T07:16:06;8.80;99.90
22249;DHT22;67538;52.180;5.646;2024-02-21T07:18:34;8.80;99.90
22249;DHT22;67538;52.180;5.646;2024-02-21T07:21:01;8.90;99.90
22249;DHT22;67538;52.180;5.646;2024-02-21T07:23:28;8.80;99.90
22249;DHT22;67538;52.180;5.646;2024-02-21T07:25:55;8.80;99.90
22249;DHT22;67538;52.180;5.646;2024-02-21T07:28:22;8.90;99.90
22249;DHT22;67538;52.180;5.646;2024-02-21T07:30:49;8.80;99.90
22249;DHT22;67538;52.180;5.646;2024-02-21T07:33:17;8.80;99.90
22249;DHT22;67538;52.180;5.646;2024-02-21T07:35:45;8.80;99.90
22249;DHT22;67538;52.180;5.646;2024-02-21T07:38:12;8.80;99.90
22249;DHT22;67538;52.180;5.646;2024-02-21T07:40:40;8.80;99.90
22249;DHT22;67538;52.180;5.646;2024-02-21T07:43:07;8.80;99.90
22249;DHT22;67538;52.180;5.646;2024-02-21T07:45:34;8.80;99.90
22249;DHT22;67538;52.180;5.646;2024-02-21T07:48:01;8.80;99.90
22249;DHT22;67538;52.180;5.646;2024-02-21T07:50:28;8.90;99.90
22249;DHT22;67538;52.180;5.646;2024-02-21T07:52:57;8.90;99.90
22249;DHT22;67538;52.180;5.646;2024-02-21T07:55:24;8.90;99.90
22249;DHT22;67538;52.180;5.646;2024-02-21T07:57:51;8.90;99.90
22249;DHT22;67538;52.180;5.646;2024-02-21T08:00:19;8.90;99.90
22249;DHT22;67538;52.180;5.646;2024-02-21T08:02:48;8.90;99.90
22249;DHT22;67538;52.180;5.646;2024-02-21T08:05:15;9.00;99.90
22249;DHT22;67538;52.180;5.646;2024-02-21T08:07:42;9.00;99.90
22249;DHT22;67538;52.180;5.646;2024-02-21T08:10:11;9.00;99.90
22249;DHT22;67538;52.180;5.646;2024-02-21T08:12:38;9.00;99.90
22249;DHT22;67538;52.180;5.646;2024-02-21T08:15:06;9.00;99.90
22249;DHT22;67538;52.180;5.646;2024-02-21T08:17:36;9.00;99.90
22249;DHT22;67538;52.180;5.646;2024-02-21T08:20:04;9.00;99.90
22249;DHT22;67538;52.180;5.646;2024-02-21T08:22:31;9.00;99.90
22249;DHT22;67538;52.180;5.646;2024-02-21T08:24:58;9.00;99.90
22249;DHT22;67538;52.180;5.646;2024-02-21T08:27:27;9.10;99.90
22249;DHT22;67538;52.180;5.646;2024-02-21T08:29:54;9.10;99.90
22249;DHT22;67538;52.180;5.646;2024-02-21T08:32:21;9.10;99.90
22249;DHT22;67538;52.180;5.646;2024-02-21T08:34:48;9.20;99.90
22249;DHT22;67538;52.180;5.646;2024-02-21T08:37:15;9.20;99.90
22249;DHT22;67538;52.180;5.646;2024-02-21T08:39:42;9.20;99.90
22249;DHT22;67538;52.180;5.646;2024-02-21T08:42:10;9.20;99.90
22249;DHT22;67538;52.180;5.646;2024-02-21T08:44:39;9.20;99.90
22249;DHT22;67538;52.180;5.646;2024-02-21T08:47:07;9.20;99.90
22249;DHT22;67538;52.180;5.646;2024-02-21T08:49:35;9.20;99.90
22249;DHT22;67538;52.180;5.646;2024-02-21T08:52:03;9.20;99.90
22249;DHT22;67538;52.180;5.646;2024-02-21T08:54:31;9.20;99.90
22249;DHT22;67538;52.180;5.646;2024-02-21T08:56:58;9.20;99.90
22249;DHT22;67538;52.180;5.646;2024-02-21T08:59:25;9.20;99.90
22249;DHT22;67538;52.180;5.646;2024-02-21T09:01:54;9.20;99.90
22249;DHT22;67538;52.180;5.646;2024-02-21T09:04:21;9.20;99.90
22249;DHT22;67538;52.180;5.646;2024-02-21T09:06:48;9.20;99.90
22249;DHT22;67538;52.180;5.646;2024-02-21T09:09:16;9.30;99.90
22249;DHT22;67538;52.180;5.646;2024-02-21T09:11:43;9.30;99.90
22249;DHT22;67538;52.180;5.646;2024-02-21T09:14:10;9.30;99.90
22249;DHT22;67538;52.180;5.646;2024-02-21T09:16:37;9.30;99.90
22249;DHT22;67538;52.180;5.646;2024-02-21T09:19:06;9.30;99.90
22249;DHT22;67538;52.180;5.646;2024-02-21T09:21:36;9.30;99.90
22249;DHT22;67538;52.180;5.646;2024-02-21T09:24:04;9.40;99.90
22249;DHT22;67538;52.180;5.646;2024-02-21T09:26:31;9.40;99.90
22249;DHT22;67538;52.180;5.646;2024-02-21T09:28:59;9.40;99.90
22249;DHT22;67538;52.180;5.646;2024-02-21T09:31:26;9.40;99.90
22249;DHT22;67538;52.180;5.646;2024-02-21T09:33:53;9.40;99.90
22249;DHT22;67538;52.180;5.646;2024-02-21T09:36:21;9.40;99.90
22249;DHT22;67538;52.180;5.646;2024-02-21T09:38:48;9.40;99.90
22249;DHT22;67538;52.180;5.646;2024-02-21T09:41:16;9.40;99.90
22249;DHT22;67538;52.180;5.646;2024-02-21T09:43:44;9.50;99.90
22249;DHT22;67538;52.180;5.646;2024-02-21T09:46:16;9.50;99.90
22249;DHT22;67538;52.180;5.646;2024-02-21T09:48:57;9.50;99.90
22249;DHT22;67538;52.180;5.646;2024-02-21T09:51:30;9.50;99.90
22249;DHT22;67538;52.180;5.646;2024-02-21T09:54:00;9.50;99.90
22249;DHT22;67538;52.180;5.646;2024-02-21T09:56:29;9.50;99.90
22249;DHT22;67538;52.180;5.646;2024-02-21T09:58:56;9.50;99.90
22249;DHT22;67538;52.180;5.646;2024-02-21T10:01:24;9.50;99.90
22249;DHT22;67538;52.180;5.646;2024-02-21T10:03:51;9.50;99.90
22249;DHT22;67538;52.180;5.646;2024-02-21T10:06:18;9.60;99.90
22249;DHT22;67538;52.180;5.646;2024-02-21T10:08:53;9.60;99.90
22249;DHT22;67538;52.180;5.646;2024-02-21T10:11:23;9.70;99.90
22249;DHT22;67538;52.180;5.646;2024-02-21T10:13:50;9.80;99.90
22249;DHT22;67538;52.180;5.646;2024-02-21T10:16:17;9.80;99.90
22249;DHT22;67538;52.180;5.646;2024-02-21T10:18:44;9.70;99.90
22249;DHT22;67538;52.180;5.646;2024-02-21T10:21:11;9.70;99.90
22249;DHT22;67538;52.180;5.646;2024-02-21T10:23:46;9.70;99.90
22249;DHT22;67538;52.180;5.646;2024-02-21T10:26:16;9.80;99.90
22249;DHT22;67538;52.180;5.646;2024-02-21T10:28:43;9.80;99.90
22249;DHT22;67538;52.180;5.646;2024-02-21T10:31:20;9.80;99.90
22249;DHT22;67538;52.180;5.646;2024-02-21T10:33:54;9.80;99.90
22249;DHT22;67538;52.180;5.646;2024-02-21T10:36:21;9.80;99.90
22249;DHT22;67538;52.180;5.646;2024-02-21T10:38:48;9.90;99.90
22249;DHT22;67538;52.180;5.646;2024-02-21T10:41:19;10.00;99.90
22249;DHT22;67538;52.180;5.646;2024-02-21T10:43:50;9.90;99.90
22249;DHT22;67538;52.180;5.646;2024-02-21T10:46:19;10.00;99.90
22249;DHT22;67538;52.180;5.646;2024-02-21T10:48:48;10.00;99.90
22249;DHT22;67538;52.180;5.646;2024-02-21T10:51:16;10.00;99.90
22249;DHT22;67538;52.180;5.646;2024-02-21T10:53:47;10.00;99.90
22249;DHT22;67538;52.180;5.646;2024-02-21T10:56:22;10.00;99.90
22249;DHT22;67538;52.180;5.646;2024-02-21T10:58:53;10.00;99.90
22249;DHT22;67538;52.180;5.646;2024-02-21T11:01:21;10.00;99.90
22249;DHT22;67538;52.180;5.646;2024-02-21T11:03:51;10.00;99.90
22249;DHT22;67538;52.180;5.646;2024-02-21T11:06:20;9.90;99.90
22249;DHT22;67538;52.180;5.646;2024-02-21T11:08:58;9.90;99.90
22249;DHT22;67538;52.180;5.646;2024-02-21T11:11:27;9.90;99.90
22249;DHT22;67538;52.180;5.646;2024-02-21T11:14:04;9.90;99.90
22249;DHT22;67538;52.180;5.646;2024-02-21T11:16:35;9.90;99.90
22249;DHT22;67538;52.180;5.646;2024-02-21T11:19:05;9.90;99.90
22249;DHT22;67538;52.180;5.646;2024-02-21T11:21:35;9.90;99.90
22249;DHT22;67538;52.180;5.646;2024-02-21T11:24:03;9.90;99.90
22249;DHT22;67538;52.180;5.646;2024-02-21T11:26:32;9.90;99.90
22249;DHT22;67538;52.180;5.646;2024-02-21T11:29:00;9.90;99.90
22249;DHT22;67538;52.180;5.646;2024-02-21T11:31:38;9.90;99.90
22249;DHT22;67538;52.180;5.646;2024-02-21T11:34:09;9.70;99.90
22249;DHT22;67538;52.180;5.646;2024-02-21T11:36:36;9.70;99.90
22249;DHT22;67538;52.180;5.646;2024-02-21T11:39:12;9.70;99.90
22249;DHT22;67538;52.180;5.646;2024-02-21T11:41:41;9.60;99.90
22249;DHT22;67538;52.180;5.646;2024-02-21T11:44:08;9.60;99.90
22249;DHT22;67538;52.180;5.646;2024-02-21T11:46:36;9.60;99.90
22249;DHT22;67538;52.180;5.646;2024-02-21T11:49:03;9.60;99.90
22249;DHT22;67538;52.180;5.646;2024-02-21T11:51:30;9.50;99.90
22249;DHT22;67538;52.180;5.646;2024-02-21T11:53:57;9.50;99.90
22249;DHT22;67538;52.180;5.646;2024-02-21T11:56:24;9.50;99.90
22249;DHT22;67538;52.180;5.646;2024-02-21T11:58:53;9.50;99.90
22249;DHT22;67538;52.180;5.646;2024-02-21T12:01:20;9.50;99.90
22249;DHT22;67538;52.180;5.646;2024-02-21T12:03:47;9.50;99.90
22249;DHT22;67538;52.180;5.646;2024-02-21T12:06:16;9.50;99.90
22249;DHT22;67538;52.180;5.646;2024-02-21T12:08:47;9.50;99.90
22249;DHT22;67538;52.180;5.646;2024-02-21T12:11:19;9.50;99.90
22249;DHT22;67538;52.180;5.646;2024-02-21T12:13:46;9.50;99.90
22249;DHT22;67538;52.180;5.646;2024-02-21T12:16:16;9.60;99.90
22249;DHT22;67538;52.180;5.646;2024-02-21T12:18:45;9.70;99.90
22249;DHT22;67538;52.180;5.646;2024-02-21T12:21:12;9.80;99.90
22249;DHT22;67538;52.180;5.646;2024-02-21T12:23:39;9.90;99.90
22249;DHT22;67538;52.180;5.646;2024-02-21T12:26:06;10.10;99.90
22249;DHT22;67538;52.180;5.646;2024-02-21T12:28:34;10.10;99.90
22249;DHT22;67538;52.180;5.646;2024-02-21T12:31:01;10.20;99.90
22249;DHT22;67538;52.180;5.646;2024-02-21T12:33:31;10.30;99.90
22249;DHT22;67538;52.180;5.646;2024-02-21T12:35:58;10.20;99.90
22249;DHT22;67538;52.180;5.646;2024-02-21T12:38:26;10.20;99.90
22249;DHT22;67538;52.180;5.646;2024-02-21T12:40:53;10.30;99.90
22249;DHT22;67538;52.180;5.646;2024-02-21T12:43:20;10.30;99.90
22249;DHT22;67538;52.180;5.646;2024-02-21T12:45:48;10.30;99.90
22249;DHT22;67538;52.180;5.646;2024-02-21T12:48:15;10.30;99.90
22249;DHT22;67538;52.180;5.646;2024-02-21T12:50:48;10.30;99.90
22249;DHT22;67538;52.180;5.646;2024-02-21T12:53:17;10.30;99.90
22249;DHT22;67538;52.180;5.646;2024-02-21T12:55:45;10.30;99.90
22249;DHT22;67538;52.180;5.646;2024-02-21T12:58:12;10.40;99.90
22249;DHT22;67538;52.180;5.646;2024-02-21T13:00:40;10.30;99.90
22249;DHT22;67538;52.180;5.646;2024-02-21T13:03:07;10.30;99.90
22249;DHT22;67538;52.180;5.646;2024-02-21T13:05:35;10.30;99.90
22249;DHT22;67538;52.180;5.646;2024-02-21T13:08:04;10.30;99.90
22249;DHT22;67538;52.180;5.646;2024-02-21T13:10:31;10.40;99.90
22249;DHT22;67538;52.180;5.646;2024-02-21T13:13:00;10.40;99.90
22249;DHT22;67538;52.180;5.646;2024-02-21T13:15:27;10.40;99.90
22249;DHT22;67538;52.180;5.646;2024-02-21T13:17:55;10.40;99.90
22249;DHT22;67538;52.180;5.646;2024-02-21T13:20:23;10.40;99.90
22249;DHT22;67538;52.180;5.646;2024-02-21T13:22:50;10.40;99.90
22249;DHT22;67538;52.180;5.646;2024-02-21T13:25:18;10.50;99.90
22249;DHT22;67538;52.180;5.646;2024-02-21T13:27:46;10.50;99.90
22249;DHT22;67538;52.180;5.646;2024-02-21T13:30:14;10.50;99.90
22249;DHT22;67538;52.180;5.646;2024-02-21T13:32:43;10.50;99.90
22249;DHT22;67538;52.180;5.646;2024-02-21T13:35:12;10.50;99.90
22249;DHT22;67538;52.180;5.646;2024-02-21T13:37:39;10.50;99.90
22249;DHT22;67538;52.180;5.646;2024-02-21T13:40:07;10.50;99.90
22249;DHT22;67538;52.180;5.646;2024-02-21T13:42:37;10.40;99.90
22249;DHT22;67538;52.180;5.646;2024-02-21T13:45:05;10.40;99.90
22249;DHT22;67538;52.180;5.646;2024-02-21T13:47:33;10.40;99.90
22249;DHT22;67538;52.180;5.646;2024-02-21T13:50:02;10.50;99.90
22249;DHT22;67538;52.180;5.646;2024-02-21T13:52:30;10.40;99.90
22249;DHT22;67538;52.180;5.646;2024-02-21T13:54:59;10.40;99.90
22249;DHT22;67538;52.180;5.646;2024-02-21T13:57:26;10.40;99.90
22249;DHT22;67538;52.180;5.646;2024-02-21T13:59:54;10.40;99.90
22249;DHT22;67538;52.180;5.646;2024-02-21T14:02:21;10.40;99.90
22249;DHT22;67538;52.180;5.646;2024-02-21T14:04:48;10.40;99.90
22249;DHT22;67538;52.180;5.646;2024-02-21T14:07:15;10.50;99.90
22249;DHT22;67538;52.180;5.646;2024-02-21T14:09:43;10.50;99.90
22249;DHT22;67538;52.180;5.646;2024-02-21T14:12:10;10.50;99.90
22249;DHT22;67538;52.180;5.646;2024-02-21T14:14:37;10.50;99.90
22249;DHT22;67538;52.180;5.646;2024-02-21T14:17:06;10.50;99.90
22249;DHT22;67538;52.180;5.646;2024-02-21T14:19:33;10.50;99.90
22249;DHT22;67538;52.180;5.646;2024-02-21T14:22:00;10.50;99.90
22249;DHT22;67538;52.180;5.646;2024-02-21T14:24:28;10.50;99.90
22249;DHT22;67538;52.180;5.646;2024-02-21T14:26:55;10.50;99.90
22249;DHT22;67538;52.180;5.646;2024-02-21T14:29:22;10.50;99.90
22249;DHT22;67538;52.180;5.646;2024-02-21T14:31:49;10.50;99.90
22249;DHT22;67538;52.180;5.646;2024-02-21T14:34:17;10.50;99.90
22249;DHT22;67538;52.180;5.646;2024-02-21T14:36:44;10.50;99.90
22249;DHT22;67538;52.180;5.646;2024-02-21T14:39:12;10.50;99.90
22249;DHT22;67538;52.180;5.646;2024-02-21T14:41:39;10.50;99.90
22249;DHT22;67538;52.180;5.646;2024-02-21T14:44:06;10.50;99.90
22249;DHT22;67538;52.180;5.646;2024-02-21T14:46:36;10.50;99.90
22249;DHT22;67538;52.180;5.646;2024-02-21T14:49:04;10.50;99.90
22249;DHT22;67538;52.180;5.646;2024-02-21T14:51:33;10.50;99.90
22249;DHT22;67538;52.180;5.646;2024-02-21T14:54:00;10.50;99.90
22249;DHT22;67538;52.180;5.646;2024-02-21T14:56:27;10.50;99.90
22249;DHT22;67538;52.180;5.646;2024-02-21T14:58:54;10.50;99.90
22249;DHT22;67538;52.180;5.646;2024-02-21T15:01:22;10.50;99.90
22249;DHT22;67538;52.180;5.646;2024-02-21T15:03:49;10.50;99.90
22249;DHT22;67538;52.180;5.646;2024-02-21T15:06:17;10.50;99.90
22249;DHT22;67538;52.180;5.646;2024-02-21T15:08:45;10.50;99.90
22249;DHT22;67538;52.180;5.646;2024-02-21T15:11:14;10.40;99.90
22249;DHT22;67538;52.180;5.646;2024-02-21T15:13:41;10.30;99.90
22249;DHT22;67538;52.180;5.646;2024-02-21T15:16:08;10.30;99.90
22249;DHT22;67538;52.180;5.646;2024-02-21T15:18:36;10.20;99.90
22249;DHT22;67538;52.180;5.646;2024-02-21T15:21:04;10.20;99.90
22249;DHT22;67538;52.180;5.646;2024-02-21T15:23:32;10.10;99.90
22249;DHT22;67538;52.180;5.646;2024-02-21T15:26:01;10.00;99.90
22249;DHT22;67538;52.180;5.646;2024-02-21T15:28:28;9.90;99.90
22249;DHT22;67538;52.180;5.646;2024-02-21T15:30:55;9.80;99.90
22249;DHT22;67538;52.180;5.646;2024-02-21T15:33:22;9.80;99.90
22249;DHT22;67538;52.180;5.646;2024-02-21T15:35:49;9.70;99.90
22249;DHT22;67538;52.180;5.646;2024-02-21T15:38:17;9.60;99.90
22249;DHT22;67538;52.180;5.646;2024-02-21T15:40:45;9.60;99.90
22249;DHT22;67538;52.180;5.646;2024-02-21T15:43:13;9.50;99.90
22249;DHT22;67538;52.180;5.646;2024-02-21T15:45:40;9.50;99.90